Time;durP1;ratioP1;P1;durP2;ratioP2;P2;SDS_P1;SDS_P2;PMS_P1;PMS_P2;Temp;Humidity;BMP_temperature;BMP_pressure;BME280_temperature;BME280_humidity;BME280_pressure;Samples;Min_cycle;Max_cycle;Signal;HPM_P1;HPM_P2
2023/05/27 00:00:06;;;;;;;73.15;69.15;;;;;;;21.42;36.76;102794.81;5005691;28;20116;-76
2023/05/27 00:02:31;;;;;;;73.88;69.97;;;;;;;21.38;36.92;102802.75;5007333;28;20121;-76
2023/05/27 00:04:57;;;;;;;73.25;69.55;;;;;;;21.35;36.86;102797.78;5008047;28;20129;-75
2023/05/27 00:07:22;;;;;;;73.28;69.40;;;;;;;21.31;36.82;102799.41;5002801;28;20053;-75
2023/05/27 00:09:48;;;;;;;72.13;68.43;;;;;;;21.28;36.79;102803.53;5002008;28;20038;-76
2023/05/27 00:12:13;;;;;;;71.47;67.03;;;;;;;21.24;36.78;102802.38;4998982;28;20045;-77
2023/05/27 00:14:38;;;;;;;69.95;66.18;;;;;;;21.20;36.98;102795.78;4995658;28;20678;-75
2023/05/27 00:17:04;;;;;;;67.10;63.50;;;;;;;21.17;36.86;102796.31;5008909;28;20526;-77
2023/05/27 00:19:30;;;;;;;68.68;65.15;;;;;;;21.12;36.84;102788.84;5000670;28;20521;-76
2023/05/27 00:21:56;;;;;;;67.03;62.95;;;;;;;21.09;37.11;102794.88;5010655;28;20073;-75
2023/05/27 00:24:22;;;;;;;68.15;64.43;;;;;;;21.06;37.34;102792.63;5001823;28;20136;-75
2023/05/27 00:26:48;;;;;;;67.10;63.78;;;;;;;21.02;36.96;102794.28;5005830;28;20042;-75
2023/05/27 00:29:15;;;;;;;65.20;62.15;;;;;;;20.99;37.09;102775.59;4997669;28;20426;-75
2023/05/27 00:31:41;;;;;;;66.78;63.53;;;;;;;20.95;36.92;102783.50;5006937;28;20483;-76
2023/05/27 00:34:06;;;;;;;66.72;63.53;;;;;;;20.92;37.30;102784.03;5004782;28;20056;-75
2023/05/27 00:36:31;;;;;;;68.43;64.82;;;;;;;20.89;37.29;102786.47;5018327;28;20038;-76
2023/05/27 00:38:57;;;;;;;67.80;63.42;;;;;;;20.86;37.20;102787.00;5004741;28;20465;-77
2023/05/27 00:41:23;;;;;;;66.82;63.33;;;;;;;20.81;37.39;102784.22;5011283;28;20116;-79
2023/05/27 00:43:48;;;;;;;68.05;64.45;;;;;;;20.78;37.48;102791.06;5018100;28;20128;-76
2023/05/27 00:46:14;;;;;;;66.65;63.00;;;;;;;20.75;37.45;102780.59;5005843;28;20041;-76
2023/05/27 00:48:40;;;;;;;66.82;63.15;;;;;;;20.72;36.96;102778.38;5003418;28;20390;-75
2023/05/27 00:51:06;;;;;;;67.63;64.03;;;;;;;20.68;37.52;102774.50;5012626;28;20038;-76
2023/05/27 00:53:39;;;;;;;68.25;64.60;;;;;;;20.65;37.62;102766.78;5017169;28;20056;-75
2023/05/27 00:56:05;;;;;;;66.53;63.22;;;;;;;20.61;37.16;102774.69;5016039;28;20038;-75
2023/05/27 00:58:31;;;;;;;65.78;62.28;;;;;;;20.58;37.39;102769.72;5007636;28;20058;-75
2023/05/27 01:00:57;;;;;;;65.00;61.20;;;;;;;20.55;37.42;102773.00;5007297;28;20125;-77
2023/05/27 01:03:23;;;;;;;66.47;62.72;;;;;;;20.50;37.34;102771.00;5006324;28;20133;-76
2023/05/27 01:05:53;;;;;;;67.20;62.95;;;;;;;20.46;37.17;102767.16;5001759;28;20491;-76
2023/05/27 01:08:31;;;;;;;64.65;61.55;;;;;;;20.43;37.24;102762.16;5022226;28;20164;-76
2023/05/27 01:10:56;;;;;;;67.43;63.47;;;;;;;20.40;37.46;102764.59;5005511;28;20044;-75
2023/05/27 01:13:46;;;;;;;63.10;60.05;;;;;;;20.36;37.43;102761.56;5001224;28;20116;-77
2023/05/27 01:16:16;;;;;;;64.72;61.50;;;;;;;20.31;37.29;102762.34;5008217;28;20026;-77
2023/05/27 01:18:44;;;;;;;65.63;62.33;;;;;;;20.28;37.29;102759.25;4998070;28;20061;-76
2023/05/27 01:21:18;;;;;;;64.93;61.22;;;;;;;20.24;37.40;102758.97;5000987;28;20041;-77
2023/05/27 01:23:47;;;;;;;66.57;62.97;;;;;;;20.21;37.48;102754.00;5013785;28;20041;-77
2023/05/27 01:26:13;;;;;;;63.05;59.85;;;;;;;20.19;37.32;102756.16;5017919;28;20041;-77
2023/05/27 01:28:39;;;;;;;64.90;61.58;;;;;;;20.14;37.74;102749.81;5016721;28;20026;-76
2023/05/27 01:31:18;;;;;;;62.83;59.72;;;;;;;20.11;37.52;102756.63;4984190;28;20035;-77
2023/05/27 01:33:55;;;;;;;64.18;60.78;;;;;;;20.08;37.93;102748.91;5012204;28;20041;-76
2023/05/27 01:36:24;;;;;;;61.05;57.25;;;;;;;20.04;37.72;102750.53;5009966;28;20042;-76
2023/05/27 01:38:52;;;;;;;62.58;59.33;;;;;;;20.00;37.72;102747.44;5019799;28;20074;-76
2023/05/27 01:41:18;;;;;;;60.53;57.05;;;;;;;19.98;37.97;102746.06;5022455;28;20446;-77
2023/05/27 01:43:44;;;;;;;64.10;60.35;;;;;;;19.94;37.48;102743.00;5004210;28;20508;-78
2023/05/27 01:46:10;;;;;;;60.90;57.85;;;;;;;19.89;38.01;102738.28;5009254;28;20029;-76
2023/05/27 01:48:35;;;;;;;64.65;60.85;;;;;;;19.87;37.60;102743.19;5013935;28;20037;-76
2023/05/27 01:51:01;;;;;;;61.53;58.35;;;;;;;19.84;37.75;102740.97;5009359;28;20470;-76
2023/05/27 01:53:26;;;;;;;62.05;58.85;;;;;;;19.81;37.73;102746.97;5008846;28;20042;-76
2023/05/27 01:55:52;;;;;;;60.90;57.78;;;;;;;19.78;38.13;102744.75;5010439;28;20042;-76
2023/05/27 01:58:17;;;;;;;60.25;57.13;;;;;;;19.76;38.05;102743.34;5006145;28;20045;-76
2023/05/27 02:00:43;;;;;;;62.42;59.05;;;;;;;19.73;37.80;102746.56;5003878;28;20426;-75
2023/05/27 02:03:08;;;;;;;61.17;58.08;;;;;;;19.69;37.91;102749.00;5002191;28;20042;-77
2023/05/27 02:05:35;;;;;;;63.20;59.78;;;;;;;19.66;38.07;102750.31;5007114;28;20121;-75
2023/05/27 02:08:01;;;;;;;63.08;59.17;;;;;;;19.62;38.05;102746.44;4996140;28;20048;-76
2023/05/27 02:10:26;;;;;;;60.95;57.95;;;;;;;19.59;37.79;102746.94;5002201;28;20030;-76
2023/05/27 02:12:52;;;;;;;61.90;58.80;;;;;;;19.56;38.23;102741.16;5001373;28;20038;-75
2023/05/27 02:15:18;;;;;;;60.00;57.00;;;;;;;19.54;38.34;102748.78;5005939;28;20509;-76
2023/05/27 02:17:46;;;;;;;60.28;56.78;;;;;;;19.50;38.40;102742.16;5016287;28;20117;-75
2023/05/27 02:20:12;;;;;;;60.80;57.70;;;;;;;19.45;38.38;102743.75;4998309;28;20483;-76
2023/05/27 02:22:37;;;;;;;61.08;57.42;;;;;;;19.42;38.29;102746.97;5015835;28;20068;-75
2023/05/27 02:25:03;;;;;;;59.85;56.65;;;;;;;19.40;38.11;102743.69;5000604;28;20038;-75
2023/05/27 02:27:28;;;;;;;60.08;57.08;;;;;;;19.37;38.33;102752.41;5008471;28;20117;-75
2023/05/27 02:29:53;;;;;;;58.60;55.50;;;;;;;19.34;38.38;102744.69;5002395;28;20031;-75
2023/05/27 02:32:19;;;;;;;61.33;58.13;;;;;;;19.30;38.19;102738.03;5010671;28;20033;-75
2023/05/27 02:34:44;;;;;;;61.72;58.53;;;;;;;19.27;38.22;102738.56;5000221;28;20038;-76
2023/05/27 02:37:10;;;;;;;60.60;57.60;;;;;;;19.24;38.15;102745.38;5006642;28;20041;-76
2023/05/27 02:39:35;;;;;;;58.63;55.72;;;;;;;19.21;38.15;102739.59;5003813;28;20061;-76
2023/05/27 02:42:01;;;;;;;57.88;54.78;;;;;;;19.17;38.14;102739.25;4996562;28;20045;-75
2023/05/27 02:44:26;;;;;;;57.83;54.72;;;;;;;19.14;38.21;102742.50;5016406;28;20406;-75
2023/05/27 02:46:52;;;;;;;61.65;57.65;;;;;;;19.11;38.29;102745.75;4985806;28;20041;-76
2023/05/27 02:49:18;;;;;;;57.47;54.58;;;;;;;19.08;38.15;102745.44;4997009;28;20046;-76
2023/05/27 02:51:43;;;;;;;59.55;56.10;;;;;;;19.05;38.74;102752.22;4999398;28;20398;-79
2023/05/27 02:54:09;;;;;;;58.45;55.42;;;;;;;19.02;38.58;102747.22;5009873;28;20463;-80
2023/05/27 02:56:34;;;;;;;57.00;53.95;;;;;;;18.98;38.80;102763.34;4998653;28;20451;-76
2023/05/27 02:58:59;;;;;;;56.90;54.00;;;;;;;18.96;38.50;102759.19;5020003;28;20541;-78
2023/05/27 03:01:25;;;;;;;56.50;53.35;;;;;;;18.92;38.58;102753.38;5001985;28;20034;-77
2023/05/27 03:03:51;;;;;;;56.63;53.63;;;;;;;18.89;38.67;102756.63;5000235;28;20034;-77
2023/05/27 03:06:16;;;;;;;58.03;54.25;;;;;;;18.87;38.54;102753.28;4997269;28;20085;-76
2023/05/27 03:08:41;;;;;;;55.63;52.58;;;;;;;18.83;38.78;102752.16;5009657;28;20034;-76
2023/05/27 03:11:07;;;;;;;57.58;54.05;;;;;;;18.81;38.82;102757.03;4985893;28;20592;-75
2023/05/27 03:13:32;;;;;;;57.00;53.58;;;;;;;18.77;38.81;102750.41;5007347;28;20033;-76
2023/05/27 03:15:58;;;;;;;56.10;52.83;;;;;;;18.74;38.77;102746.22;4983874;28;20050;-77
2023/05/27 03:18:23;;;;;;;53.92;51.00;;;;;;;18.71;38.65;102756.84;5003378;28;20453;-77
2023/05/27 03:20:50;;;;;;;57.03;53.25;;;;;;;18.68;38.88;102752.69;4985977;28;20069;-76
2023/05/27 03:23:15;;;;;;;56.20;53.03;;;;;;;18.66;38.67;102743.09;4998920;28;20136;-76
2023/05/27 03:25:41;;;;;;;53.35;50.58;;;;;;;18.61;38.67;102746.56;5005444;28;20173;-77
2023/05/27 03:28:06;;;;;;;57.53;54.15;;;;;;;18.58;38.75;102745.16;5016422;28;20045;-76
2023/05/27 03:30:32;;;;;;;56.25;53.20;;;;;;;18.57;38.99;102745.38;5003415;28;20530;-76
2023/05/27 03:32:58;;;;;;;55.88;52.50;;;;;;;18.53;38.79;102741.50;5000139;28;20041;-79
2023/05/27 03:35:23;;;;;;;57.80;54.58;;;;;;;18.51;39.01;102740.91;5009959;28;20403;-77
2023/05/27 03:37:48;;;;;;;55.28;52.30;;;;;;;18.48;38.96;102739.50;4994649;28;20095;-76
2023/05/27 03:40:14;;;;;;;54.90;52.20;;;;;;;18.44;39.19;102738.31;5013801;28;20033;-76
2023/05/27 03:42:39;;;;;;;54.95;52.15;;;;;;;18.41;38.77;102738.00;5000499;28;20042;-77
2023/05/27 03:45:06;;;;;;;54.08;50.88;;;;;;;18.40;38.80;102733.63;5006219;28;20053;-76
2023/05/27 03:47:31;;;;;;;53.28;50.08;;;;;;;18.35;39.22;102737.91;5006435;28;20037;-75
2023/05/27 03:49:57;;;;;;;56.00;53.00;;;;;;;18.33;39.21;102733.75;5020852;28;20549;-75
2023/05/27 03:52:22;;;;;;;53.75;50.50;;;;;;;18.30;39.25;102731.53;5011612;28;20038;-76
2023/05/27 03:54:47;;;;;;;55.47;52.67;;;;;;;18.28;39.20;102730.94;5003023;28;21599;-76
2023/05/27 03:57:13;;;;;;;53.90;51.10;;;;;;;18.25;39.28;102728.69;5005571;28;20034;-77
2023/05/27 03:59:38;;;;;;;54.00;51.10;;;;;;;18.22;39.06;102732.75;5002188;28;20048;-75
2023/05/27 04:02:04;;;;;;;53.72;50.85;;;;;;;18.20;39.16;102723.13;5008108;28;20042;-76
2023/05/27 04:04:30;;;;;;;53.00;50.13;;;;;;;18.15;38.99;102727.44;5020737;28;20494;-76
2023/05/27 04:06:55;;;;;;;54.85;51.80;;;;;;;18.13;39.36;102729.56;5005035;28;20034;-76
2023/05/27 04:09:21;;;;;;;53.22;49.80;;;;;;;18.11;39.30;102728.16;5001566;28;20056;-75
2023/05/27 04:11:46;;;;;;;55.53;52.45;;;;;;;18.08;39.14;102731.38;5005600;28;20041;-76
2023/05/27 04:14:12;;;;;;;50.22;47.63;;;;;;;18.04;39.32;102724.72;5028559;28;20030;-76
2023/05/27 04:16:37;;;;;;;51.80;49.15;;;;;;;18.01;39.41;102737.00;5007840;28;20100;-76
2023/05/27 04:19:03;;;;;;;53.33;50.42;;;;;;;17.98;39.10;102731.19;5000221;28;20046;-75
2023/05/27 04:21:29;;;;;;;53.50;49.97;;;;;;;17.95;39.19;102730.59;5009685;28;20034;-75
2023/05/27 04:23:54;;;;;;;53.22;50.33;;;;;;;17.93;39.09;102724.53;4995975;28;20042;-77
2023/05/27 04:26:20;;;;;;;52.50;49.28;;;;;;;17.90;39.55;102724.22;5006903;28;20046;-77
2023/05/27 04:28:46;;;;;;;51.17;48.47;;;;;;;17.87;39.66;102724.72;5016760;28;20042;-76
2023/05/27 04:31:12;;;;;;;52.35;49.53;;;;;;;17.84;39.54;102717.81;5010542;28;20496;-76
2023/05/27 04:33:44;;;;;;;53.63;50.20;;;;;;;17.82;39.64;102719.13;5015215;28;20033;-76
2023/05/27 04:36:10;;;;;;;52.08;49.25;;;;;;;17.78;39.59;102713.28;5000759;28;20043;-77
2023/05/27 04:38:35;;;;;;;52.20;49.40;;;;;;;17.77;39.85;102713.53;5003816;28;20037;-77
2023/05/27 04:41:01;;;;;;;52.35;49.50;;;;;;;17.73;39.71;102714.00;4999904;28;20045;-77
2023/05/27 04:43:29;;;;;;;51.50;48.80;;;;;;;17.70;39.85;102706.28;5027230;28;20046;-76
2023/05/27 04:45:55;;;;;;;51.10;48.60;;;;;;;17.69;39.45;102701.09;5017783;28;20040;-76
2023/05/27 04:48:23;;;;;;;51.30;48.45;;;;;;;17.67;39.87;102697.75;5016839;28;20026;-76
2023/05/27 04:50:48;;;;;;;52.20;49.20;;;;;;;17.65;39.78;102688.97;5025135;28;20042;-76
2023/05/27 04:53:15;;;;;;;51.88;48.97;;;;;;;17.62;39.49;102693.03;5024885;28;20378;-76
2023/05/27 04:55:41;;;;;;;49.33;46.50;;;;;;;17.60;39.64;102699.81;5004026;28;20084;-74
2023/05/27 04:58:06;;;;;;;49.92;47.33;;;;;;;17.57;39.96;102694.84;5005365;28;20395;-74
2023/05/27 05:00:52;;;;;;;48.20;45.80;;;;;;;17.53;39.99;102695.28;4998711;28;20493;-74
2023/05/27 05:03:22;;;;;;;50.20;47.58;;;;;;;17.51;39.65;102697.47;5010829;28;20065;-75
2023/05/27 05:05:51;;;;;;;49.95;47.05;;;;;;;17.50;40.04;102700.41;4999641;28;20041;-76
2023/05/27 05:08:16;;;;;;;50.28;46.97;;;;;;;17.49;40.01;102698.78;5001328;28;20136;-76
2023/05/27 05:10:42;;;;;;;50.90;48.10;;;;;;;17.47;39.69;102698.19;4987747;28;20129;-76
2023/05/27 05:13:07;;;;;;;52.97;49.35;;;;;;;17.45;39.75;102695.66;5001637;28;20034;-76
2023/05/27 05:15:33;;;;;;;50.45;48.00;;;;;;;17.43;39.79;102699.72;5027566;28;20045;-75
2023/05/27 05:17:58;;;;;;;50.88;47.97;;;;;;;17.41;40.12;102699.13;5007126;28;20034;-76
2023/05/27 05:20:23;;;;;;;48.58;45.97;;;;;;;17.40;40.00;102695.56;5002737;28;20037;-76
2023/05/27 05:22:49;;;;;;;47.28;44.97;;;;;;;17.38;39.85;102694.97;5004765;28;20057;-77
2023/05/27 05:25:15;;;;;;;47.70;45.40;;;;;;;17.37;40.03;102693.31;5020591;28;20049;-75
2023/05/27 05:27:41;;;;;;;50.15;46.70;;;;;;;17.36;40.20;102697.13;5017159;28;20470;-77
2023/05/27 05:30:07;;;;;;;50.42;46.92;;;;;;;17.36;40.61;102697.13;5004690;28;20482;-76
2023/05/27 05:32:33;;;;;;;49.08;46.35;;;;;;;17.35;40.22;102692.72;5001097;28;20038;-76
2023/05/27 05:34:58;;;;;;;49.25;46.20;;;;;;;17.34;40.41;102693.81;5004056;28;20087;-75
2023/05/27 05:37:24;;;;;;;49.97;46.67;;;;;;;17.35;40.28;102691.91;5010703;28;20042;-76
2023/05/27 05:39:49;;;;;;;48.05;45.05;;;;;;;17.35;40.07;102683.72;5018006;28;20061;-76
2023/05/27 05:42:15;;;;;;;49.50;46.53;;;;;;;17.34;40.29;102691.09;5000677;28;20129;-76
2023/05/27 05:44:41;;;;;;;48.70;45.85;;;;;;;17.33;40.33;102683.94;5003709;28;20082;-75
2023/05/27 05:47:07;;;;;;;47.90;45.40;;;;;;;17.32;40.27;102684.19;5008721;28;20176;-75
2023/05/27 05:49:32;;;;;;;48.13;45.53;;;;;;;17.29;40.17;102680.03;5017142;28;20133;-75
2023/05/27 05:51:58;;;;;;;51.33;48.20;;;;;;;17.29;40.65;102682.78;5001594;28;20501;-78
2023/05/27 05:54:23;;;;;;;47.80;45.25;;;;;;;17.29;40.67;102678.13;5007146;28;20538;-77
2023/05/27 05:56:48;;;;;;;50.05;47.05;;;;;;;17.30;40.53;102677.06;5008596;28;20041;-76
2023/05/27 05:59:14;;;;;;;47.00;44.50;;;;;;;17.28;40.49;102678.38;5004321;28;20033;-76
2023/05/27 06:01:39;;;;;;;49.13;46.53;;;;;;;17.27;40.32;102680.28;5001786;28;20375;-79
2023/05/27 06:04:06;;;;;;;49.95;46.75;;;;;;;17.27;40.63;102674.00;4984388;28;20505;-76
2023/05/27 06:06:31;;;;;;;49.20;46.28;;;;;;;17.26;40.63;102683.22;4999542;28;20050;-76
2023/05/27 06:08:57;;;;;;;50.85;47.35;;;;;;;17.28;40.61;102679.19;4997821;28;20479;-76
2023/05/27 06:11:22;;;;;;;50.50;46.33;;;;;;;17.28;40.75;102681.94;4996118;28;20485;-77
2023/05/27 06:13:48;;;;;;;48.38;45.67;;;;;;;17.28;40.68;102681.94;5004446;28;20069;-78
2023/05/27 06:16:13;;;;;;;48.25;45.38;;;;;;;17.27;40.65;102672.09;5003645;28;20229;-77
2023/05/27 06:18:38;;;;;;;49.50;46.80;;;;;;;17.27;40.56;102676.72;4982730;28;20039;-78
2023/05/27 06:21:04;;;;;;;51.33;47.92;;;;;;;17.27;40.68;102666.63;4993223;28;20045;-77
2023/05/27 06:23:29;;;;;;;47.42;44.00;;;;;;;17.28;40.74;102671.00;5003290;28;20105;-75
2023/05/27 06:25:55;;;;;;;49.78;46.85;;;;;;;17.29;40.89;102659.03;5016537;28;20117;-79
2023/05/27 06:28:20;;;;;;;50.20;47.22;;;;;;;17.29;40.85;102658.19;5006529;28;20064;-76
2023/05/27 06:30:46;;;;;;;51.22;48.05;;;;;;;17.29;40.89;102645.38;5003139;28;20096;-76
2023/05/27 06:33:11;;;;;;;48.30;45.47;;;;;;;17.30;41.18;102651.66;5002423;28;20117;-76
2023/05/27 06:35:37;;;;;;;48.95;45.90;;;;;;;17.32;41.30;102645.97;5007067;28;20041;-76
2023/05/27 06:38:02;;;;;;;49.05;46.35;;;;;;;17.32;40.91;102654.97;5008871;28;20036;-76
2023/05/27 06:40:27;;;;;;;50.67;47.38;;;;;;;17.34;41.16;102649.25;5017549;28;20107;-76
2023/05/27 06:42:54;;;;;;;49.70;46.90;;;;;;;17.35;41.47;102645.47;4997651;28;20132;-76
2023/05/27 06:45:19;;;;;;;48.17;45.17;;;;;;;17.37;41.42;102654.25;5006413;28;20048;-75
2023/05/27 06:47:45;;;;;;;47.63;44.83;;;;;;;17.38;41.45;102645.81;5009264;28;20041;-78
2023/05/27 06:50:11;;;;;;;50.33;47.00;;;;;;;17.39;41.21;102647.47;5000429;28;20072;-76
2023/05/27 06:52:36;;;;;;;49.03;46.28;;;;;;;17.41;41.22;102644.47;5006432;28;20046;-77
2023/05/27 06:55:02;;;;;;;48.55;46.08;;;;;;;17.42;41.54;102648.91;5000520;28;20041;-76
2023/05/27 06:57:27;;;;;;;47.97;45.35;;;;;;;17.44;41.50;102641.28;5006435;28;20121;-76
2023/05/27 06:59:52;;;;;;;49.95;46.83;;;;;;;17.46;41.44;102641.84;4988454;28;20042;-77
2023/05/27 07:02:18;;;;;;;51.45;47.63;;;;;;;17.48;41.45;102642.44;5004982;28;20072;-75
2023/05/27 07:04:43;;;;;;;49.25;45.95;;;;;;;17.47;41.73;102649.81;4987735;28;20128;-76
2023/05/27 07:07:09;;;;;;;51.47;47.80;;;;;;;17.49;41.62;102644.94;5007175;28;20050;-76
2023/05/27 07:09:34;;;;;;;53.38;49.03;;;;;;;17.51;41.78;102645.53;4992764;28;20045;-76
2023/05/27 07:12:01;;;;;;;51.97;48.90;;;;;;;17.51;41.69;102641.97;5001887;28;20470;-78
2023/05/27 07:14:26;;;;;;;49.13;46.05;;;;;;;17.50;41.79;102641.13;5003101;28;20041;-75
2023/05/27 07:16:52;;;;;;;50.42;46.75;;;;;;;17.53;41.83;102640.63;5006085;28;20030;-75
2023/05/27 07:19:17;;;;;;;50.72;46.85;;;;;;;17.55;41.92;102634.94;5010927;28;20501;-77
2023/05/27 07:21:43;;;;;;;51.20;47.22;;;;;;;17.58;42.19;102639.91;5008783;28;20042;-78
2023/05/27 07:24:08;;;;;;;50.58;47.55;;;;;;;17.61;41.90;102639.41;5004341;28;20406;-79
2023/05/27 07:26:34;;;;;;;51.65;48.45;;;;;;;17.66;42.45;102644.16;5005859;28;20045;-77
2023/05/27 07:29:00;;;;;;;52.80;49.30;;;;;;;17.69;42.12;102633.59;5004380;28;20060;-79
2023/05/27 07:31:27;;;;;;;51.70;48.22;;;;;;;17.73;42.20;102631.19;4994200;28;20066;-77
2023/05/27 07:33:53;;;;;;;50.78;47.30;;;;;;;17.76;42.42;102627.94;4991755;28;20034;-79
2023/05/27 07:36:18;;;;;;;52.38;49.22;;;;;;;17.81;42.16;102624.53;5007227;28;20080;-78
2023/05/27 07:38:44;;;;;;;50.88;47.53;;;;;;;17.84;42.39;102624.03;5006536;28;20501;-76
2023/05/27 07:41:09;;;;;;;51.72;48.65;;;;;;;17.86;42.12;102622.69;5012062;28;20045;-76
2023/05/27 07:43:35;;;;;;;49.95;47.03;;;;;;;17.91;42.06;102628.25;5013527;28;20037;-75
2023/05/27 07:46:00;;;;;;;53.88;49.72;;;;;;;17.96;42.41;102613.84;5013622;28;20061;-80
2023/05/27 07:48:27;;;;;;;51.13;48.35;;;;;;;18.00;42.43;102604.09;5029796;28;20044;-76
2023/05/27 07:50:53;;;;;;;52.88;49.58;;;;;;;18.05;42.17;102611.56;5007885;28;20484;-75
2023/05/27 07:53:18;;;;;;;54.22;50.28;;;;;;;18.09;42.50;102607.25;5004297;28;20521;-76
2023/05/27 07:55:44;;;;;;;53.85;49.92;;;;;;;18.13;42.50;102606.50;5010431;28;20474;-77
2023/05/27 07:58:09;;;;;;;53.47;50.25;;;;;;;18.19;42.42;102601.94;5017960;28;20044;-75
2023/05/27 08:00:35;;;;;;;54.00;50.28;;;;;;;18.25;42.58;102597.41;4963821;28;20041;-75
2023/05/27 08:03:00;;;;;;;52.72;49.70;;;;;;;18.31;42.98;102601.84;5006516;28;20482;-76
2023/05/27 08:05:25;;;;;;;52.92;49.63;;;;;;;18.37;42.44;102601.69;5012674;28;20142;-77
2023/05/27 08:07:51;;;;;;;56.47;52.58;;;;;;;18.43;42.32;102591.66;5031829;28;20051;-77
2023/05/27 08:10:16;;;;;;;54.35;51.03;;;;;;;18.48;42.50;102586.25;5014060;28;20037;-76
2023/05/27 08:12:42;;;;;;;53.83;50.47;;;;;;;18.54;42.61;102582.50;5010178;28;20436;-75
2023/05/27 08:15:07;;;;;;;53.42;50.30;;;;;;;18.62;42.66;102577.69;5028732;28;20030;-79
2023/05/27 08:17:33;;;;;;;54.90;51.97;;;;;;;18.68;42.86;102573.94;5041959;28;20052;-75
2023/05/27 08:19:58;;;;;;;54.78;51.38;;;;;;;18.74;43.05;102570.19;4998843;28;20037;-76
2023/05/27 08:22:24;;;;;;;53.47;50.88;;;;;;;18.80;43.11;102569.22;5011420;28;20534;-69
2023/05/27 08:24:49;;;;;;;57.20;53.60;;;;;;;18.86;43.23;102565.47;5029441;28;20041;-75
2023/05/27 08:27:16;;;;;;;58.67;54.90;;;;;;;18.95;43.12;102561.22;5022007;28;20034;-77
2023/05/27 08:29:42;;;;;;;59.30;55.50;;;;;;;19.03;42.86;102563.50;5012499;28;20033;-75
2023/05/27 08:32:08;;;;;;;57.55;54.30;;;;;;;19.11;42.79;102559.47;5014018;28;20040;-85
2023/05/27 08:34:33;;;;;;;57.33;54.10;;;;;;;19.20;43.10;102557.09;5002204;28;20509;-76
2023/05/27 08:37:00;;;;;;;57.45;54.10;;;;;;;19.27;43.52;102555.00;4994697;28;20415;-72
2023/05/27 08:39:26;;;;;;;60.15;55.63;;;;;;;19.35;42.99;102554.56;4997340;28;20034;-78
2023/05/27 08:41:53;;;;;;;58.33;55.15;;;;;;;19.45;43.14;102551.06;4995963;28;20041;-77
2023/05/27 08:44:21;;;;;;;59.15;55.55;;;;;;;19.54;42.72;102548.69;5028646;28;20057;-74
2023/05/27 08:46:50;;;;;;;59.17;54.88;;;;;;;19.63;42.58;102552.59;5027795;28;20034;-76
2023/05/27 08:49:16;;;;;;;60.90;57.03;;;;;;;19.71;42.56;102543.97;4993014;28;20156;-77
2023/05/27 08:51:44;;;;;;;60.72;57.13;;;;;;;19.79;42.01;102543.47;5013786;28;20096;-76
2023/05/27 08:54:10;;;;;;;60.90;57.40;;;;;;;19.87;42.15;102547.66;5027986;28;20466;-79
2023/05/27 08:56:36;;;;;;;59.47;55.58;;;;;;;19.95;41.75;102540.84;5012575;28;20030;-76
2023/05/27 08:59:02;;;;;;;63.33;59.50;;;;;;;20.02;41.88;102531.31;5000553;28;20034;-74
2023/05/27 09:01:28;;;;;;;63.97;59.85;;;;;;;20.11;42.13;102526.19;4992885;28;20042;-75
2023/05/27 09:03:55;;;;;;;64.13;59.78;;;;;;;20.20;41.94;102516.34;4994106;28;20375;-76
2023/05/27 09:06:21;;;;;;;64.43;60.67;;;;;;;20.28;41.80;102518.59;4992374;28;20026;-75
2023/05/27 09:08:46;;;;;;;65.00;60.90;;;;;;;20.34;41.53;102516.72;4992856;28;20061;-76
2023/05/27 09:11:27;;;;;;;63.75;60.20;;;;;;;20.39;40.79;102524.16;4993432;28;20042;-80
2023/05/27 09:13:57;;;;;;;66.53;62.28;;;;;;;20.39;40.90;102515.94;4994076;28;20034;-75
2023/05/27 09:16:24;;;;;;;66.28;62.50;;;;;;;20.43;41.26;102506.88;4997651;28;20034;-74
2023/05/27 09:18:49;;;;;;;66.88;63.33;;;;;;;20.52;40.73;102509.97;4999588;28;20375;-75
2023/05/27 09:21:15;;;;;;;67.13;63.10;;;;;;;20.63;40.46;102503.44;5008514;28;20041;-74
2023/05/27 09:23:41;;;;;;;67.97;63.92;;;;;;;20.73;40.49;102506.22;4993198;28;20062;-74
2023/05/27 09:26:11;;;;;;;66.57;62.70;;;;;;;20.85;40.22;102497.78;4992436;28;20089;-75
2023/05/27 09:28:37;;;;;;;67.57;63.38;;;;;;;20.95;40.31;102500.53;4991951;28;20034;-75
2023/05/27 09:31:07;;;;;;;69.57;64.82;;;;;;;21.07;39.90;102502.25;4993577;28;20030;-75
2023/05/27 09:33:38;;;;;;;70.00;64.68;;;;;;;21.17;39.96;102497.59;4994777;28;20061;-71
2023/05/27 09:36:04;;;;;;;72.93;67.82;;;;;;;21.27;39.46;102496.78;5013574;28;20034;-73
2023/05/27 09:38:31;;;;;;;71.55;67.10;;;;;;;21.37;39.39;102495.97;5012860;28;20038;-74
2023/05/27 09:41:00;;;;;;;73.13;68.97;;;;;;;21.47;39.37;102490.53;5008351;28;20034;-73
2023/05/27 09:43:29;;;;;;;72.25;68.35;;;;;;;21.58;39.80;102483.91;4991425;28;20030;-75
2023/05/27 09:46:00;;;;;;;71.55;67.43;;;;;;;21.69;39.62;102483.91;5018494;28;20034;-74
2023/05/27 09:48:26;;;;;;;76.80;72.30;;;;;;;21.78;39.65;102488.59;4991604;28;20034;-73
2023/05/27 09:50:52;;;;;;;73.10;68.75;;;;;;;21.89;39.59;102481.13;4993063;28;20092;-75
2023/05/27 09:53:21;;;;;;;73.53;68.93;;;;;;;21.99;39.08;102475.63;4992538;28;20041;-75
2023/05/27 09:55:48;;;;;;;73.88;69.85;;;;;;;22.09;39.52;102474.78;4993643;28;20525;-75
2023/05/27 09:58:15;;;;;;;76.90;72.35;;;;;;;22.19;39.90;102476.69;5010612;28;20042;-76
2023/05/27 10:00:44;;;;;;;76.03;71.35;;;;;;;22.30;39.26;102470.09;5003876;28;20451;-76
2023/05/27 10:03:11;;;;;;;74.72;70.68;;;;;;;22.40;39.72;102463.72;4991436;28;20038;-75
2023/05/27 10:05:37;;;;;;;76.97;73.00;;;;;;;22.50;39.70;102471.09;4992629;28;20258;-76
2023/05/27 10:08:03;;;;;;;78.53;74.38;;;;;;;22.59;39.02;102473.00;4991770;28;20038;-76
2023/05/27 10:10:29;;;;;;;80.78;75.90;;;;;;;22.69;39.29;102467.44;5010035;28;20053;-73
2023/05/27 10:12:56;;;;;;;76.72;72.45;;;;;;;22.81;38.93;102458.84;5026448;28;20121;-74
2023/05/27 10:15:27;;;;;;;81.53;76.90;;;;;;;22.92;39.45;102456.03;5026735;28;20040;-75
2023/05/27 10:17:52;;;;;;;80.80;75.93;;;;;;;22.98;39.92;102450.25;5011728;28;20030;-74
2023/05/27 10:20:29;;;;;;;82.95;78.15;;;;;;;23.08;39.42;102452.09;5026513;28;20394;-79
2023/05/27 10:23:08;;;;;;;84.90;80.03;;;;;;;23.19;37.93;102450.94;5011456;28;20498;-73
2023/05/27 10:25:50;;;;;;;83.00;78.53;;;;;;;23.30;38.37;102446.16;5011267;28;20021;-74
2023/05/27 10:28:32;;;;;;;84.72;79.78;;;;;;;23.43;39.12;102439.16;5011582;28;20061;-74
2023/05/27 10:31:06;;;;;;;85.57;80.45;;;;;;;23.53;38.17;102433.53;5011997;28;20029;-74
2023/05/27 10:33:35;;;;;;;85.18;80.25;;;;;;;23.63;37.74;102436.22;5010772;28;20529;-74
2023/05/27 10:36:04;;;;;;;88.35;83.45;;;;;;;23.72;37.73;102437.25;5011695;28;20076;-75
2023/05/27 10:38:30;;;;;;;85.72;81.40;;;;;;;23.81;38.29;102436.63;5011115;28;20037;-74
2023/05/27 10:41:03;;;;;;;94.78;89.97;;;;;;;23.91;38.25;102433.75;5026513;28;20060;-73
2023/05/27 10:43:29;;;;;;;89.03;84.20;;;;;;;24.01;37.33;102430.88;5010418;28;20045;-74
2023/05/27 10:46:02;;;;;;;90.85;85.88;;;;;;;24.09;37.54;102416.47;5011534;28;20034;-73
2023/05/27 10:48:30;;;;;;;88.28;83.57;;;;;;;24.18;37.34;102420.19;5007195;28;20041;-75
2023/05/27 10:50:57;;;;;;;90.40;85.43;;;;;;;24.28;37.28;102416.50;4991050;28;20510;-75
2023/05/27 10:53:26;;;;;;;90.75;86.20;;;;;;;24.37;37.73;102419.44;4991592;28;20434;-74
2023/05/27 10:55:51;;;;;;;91.00;86.53;;;;;;;24.46;38.18;102405.81;4990932;28;20073;-74
2023/05/27 10:58:18;;;;;;;93.05;88.25;;;;;;;24.53;38.09;102406.28;4996276;28;20058;-74
2023/05/27 11:00:54;;;;;;;92.53;88.13;;;;;;;24.63;38.82;102405.31;5011053;28;20027;-74
2023/05/27 11:03:25;;;;;;;93.00;88.10;;;;;;;24.71;38.36;102388.06;4993089;28;20044;-74
2023/05/27 11:06:05;;;;;;;92.90;87.60;;;;;;;24.81;37.54;102393.44;5009473;28;20034;-74